La Pryor, Texas
Current Conditions -  °F | °C
As of 2:15 PM on Sunday 21 Dec 2014 (Local Time) from KUVA Reporting Station
Overcast Overcast  
Wind Chill: 52°   Ceiling: 1200
Heat Index: 52°   Visibility: 10mi
Dew Point: 47°   Wind: 5mph
Humidity: 85%   Direction: 170°S
Pressure: 29.97"   Gusts: NA
Location:  28.94°N, 99.85°W
Report Text: KUVA 212015Z AUTO 17004KT 10SM OVC012 11/09 A2997 RMK AO2 T01090085
Loading
Personal Weather Stations






























Interactive Weather Map New forecast layout! Learn more

10-Day Weather Forecast

Advertisements
Track Severe Weather on mobile